Time;durP1;ratioP1;P1;durP2;ratioP2;P2;SDS_P1;SDS_P2;PMS_P1;PMS_P2;Temp;Humidity;BMP_temperature;BMP_pressure;BME280_temperature;BME280_humidity;BME280_pressure;Samples;Min_cycle;Max_cycle;Signal;HPM_P1;HPM_P2
2022/12/29 00:01:31;;;;;;;2.00;1.25;;;;;;;10.39;100.00;99397.88;5037542;28;20037;-66
2022/12/29 00:03:57;;;;;;;2.03;1.20;;;;;;;10.33;100.00;99399.41;5028319;28;20535;-67
2022/12/29 00:06:23;;;;;;;1.40;0.90;;;;;;;10.32;100.00;99407.84;5025048;28;20120;-67
2022/12/29 00:08:49;;;;;;;3.13;1.30;;;;;;;10.19;100.00;99407.44;5026630;28;20043;-66
2022/12/29 00:11:20;;;;;;;2.40;1.48;;;;;;;10.29;100.00;99417.47;5027930;28;20398;-66
2022/12/29 00:16:31;;;;;;;1.40;1.20;;;;;;;10.30;100.00;99407.47;5026750;28;20105;-67
2022/12/29 00:18:57;;;;;;;1.73;1.30;;;;;;;10.35;100.00;99410.56;5033909;28;20525;-67
2022/12/29 00:35:30;;;;;;;1.42;1.13;;;;;;;10.40;100.00;99395.94;5029701;28;20416;-67
2022/12/29 00:46:10;;;;;;;1.50;1.33;;;;;;;10.69;100.00;99365.16;5030478;28;20025;-68
2022/12/29 00:51:20;;;;;;;1.58;1.40;;;;;;;10.78;100.00;99363.59;5027965;28;20087;-68
2022/12/29 00:53:45;;;;;;;2.08;1.30;;;;;;;10.78;100.00;99368.97;5025699;28;20053;-68
2022/12/29 00:56:12;;;;;;;2.63;1.63;;;;;;;10.70;100.00;99367.44;5034218;28;20448;-67
2022/12/29 00:58:37;;;;;;;1.40;1.30;;;;;;;10.70;100.00;99367.44;5034713;28;20548;-66
2022/12/29 01:01:07;;;;;;;1.52;1.25;;;;;;;10.77;100.00;99375.53;5027896;28;20041;-69
2022/12/29 01:03:34;;;;;;;3.08;1.45;;;;;;;10.87;100.00;99377.44;5027289;28;20557;-69
2022/12/29 01:06:01;;;;;;;2.05;1.58;;;;;;;10.88;100.00;99368.19;5042444;28;20029;-68
2022/12/29 01:08:28;;;;;;;2.30;1.60;;;;;;;10.77;100.00;99361.31;5026929;28;20553;-68
2022/12/29 01:11:01;;;;;;;3.10;1.52;;;;;;;10.72;100.00;99364.41;5027158;28;20517;-67
2022/12/29 01:13:27;;;;;;;2.05;1.50;;;;;;;10.86;100.00;99351.66;5036949;28;20030;-68
2022/12/29 01:15:54;;;;;;;1.08;0.98;;;;;;;10.95;100.00;99356.66;5030521;28;20041;-67
2022/12/29 01:18:20;;;;;;;2.00;1.50;;;;;;;10.76;100.00;99347.06;5031326;28;20033;-68
2022/12/29 01:20:45;;;;;;;2.35;0.93;;;;;;;10.78;100.00;99349.38;5030848;28;20029;-66
2022/12/29 01:23:11;;;;;;;2.13;1.65;;;;;;;10.77;100.00;99340.53;5032508;28;20529;-67
2022/12/29 01:25:36;;;;;;;2.72;1.48;;;;;;;10.97;100.00;99337.41;5032485;28;20017;-68
2022/12/29 01:28:01;;;;;;;1.65;1.50;;;;;;;10.96;100.00;99341.25;5032186;28;20132;-67
2022/12/29 01:30:27;;;;;;;3.80;1.67;;;;;;;10.93;100.00;99347.41;5028826;28;20098;-67
2022/12/29 01:32:52;;;;;;;2.30;1.35;;;;;;;10.98;100.00;99349.69;5021912;28;20037;-65
2022/12/29 01:35:18;;;;;;;2.30;1.50;;;;;;;10.92;100.00;99329.72;5032530;28;20719;-66
2022/12/29 01:37:44;;;;;;;1.48;1.38;;;;;;;11.10;100.00;99331.19;5028945;28;20037;-66
2022/12/29 01:40:10;;;;;;;1.48;1.30;;;;;;;10.82;100.00;99321.28;5033384;28;20037;-67
2022/12/29 01:42:36;;;;;;;1.98;1.55;;;;;;;10.99;100.00;99321.63;5047884;28;20497;-65
2022/12/29 01:45:03;;;;;;;1.17;1.08;;;;;;;11.09;100.00;99316.19;5017764;28;20045;-68
2022/12/29 01:47:38;;;;;;;3.13;1.83;;;;;;;11.13;100.00;99308.09;5030290;28;20044;-66
2022/12/29 01:50:20;;;;;;;1.67;1.40;;;;;;;11.12;100.00;99312.72;5030398;28;20052;-69
2022/12/29 01:52:57;;;;;;;2.83;1.50;;;;;;;11.02;100.00;99304.66;5034127;28;20906;-65
2022/12/29 01:55:24;;;;;;;2.33;1.63;;;;;;;10.98;100.00;99306.59;5025598;28;20116;-64
2022/12/29 01:57:52;;;;;;;4.70;1.52;;;;;;;10.84;100.00;99307.41;5031725;28;20037;-65
2022/12/29 02:00:18;;;;;;;3.53;1.48;;;;;;;10.81;100.00;99298.22;5029280;28;20371;-66
2022/12/29 02:02:51;;;;;;;1.70;1.42;;;;;;;10.95;100.00;99302.78;5030190;28;20033;-66
2022/12/29 02:05:24;;;;;;;2.08;1.50;;;;;;;11.01;100.00;99301.22;5029219;28;20495;-66
2022/12/29 02:07:51;;;;;;;1.60;1.25;;;;;;;10.94;100.00;99303.19;5046401;28;20034;-66
2022/12/29 02:10:20;;;;;;;2.67;1.48;;;;;;;10.92;100.00;99292.03;5031831;28;20502;-66
2022/12/29 02:12:46;;;;;;;2.25;1.60;;;;;;;11.12;100.00;99301.16;5031162;28;20041;-66
2022/12/29 02:15:13;;;;;;;2.50;1.73;;;;;;;11.22;100.00;99289.59;5027645;28;20037;-66
2022/12/29 02:17:51;;;;;;;3.30;1.40;;;;;;;11.22;100.00;99300.38;5031149;28;20052;-66
2022/12/29 02:20:36;;;;;;;1.77;1.42;;;;;;;11.05;100.00;99301.97;5031606;28;20033;-66
2022/12/29 02:23:27;;;;;;;2.40;1.42;;;;;;;11.10;100.00;99292.72;5038051;28;20549;-66
2022/12/29 02:26:18;;;;;;;2.20;1.38;;;;;;;11.00;100.00;99285.44;5031590;28;20029;-66
2022/12/29 02:29:06;;;;;;;1.70;1.33;;;;;;;10.93;100.00;99280.09;5031144;28;20087;-66
2022/12/29 02:31:38;;;;;;;1.67;1.20;;;;;;;10.77;100.00;99272.44;5016521;28;20040;-66
2022/12/29 02:34:21;;;;;;;2.60;1.27;;;;;;;10.83;100.00;99281.66;5018916;28;20037;-66
2022/12/29 02:37:05;;;;;;;3.15;1.25;;;;;;;10.89;100.00;99278.19;5029333;28;20088;-67
2022/12/29 02:39:55;;;;;;;1.48;1.17;;;;;;;11.07;100.00;99270.00;5030504;28;20037;-67
2022/12/29 02:42:42;;;;;;;2.00;1.48;;;;;;;11.15;100.00;99276.16;5046105;28;20036;-67
2022/12/29 02:45:46;;;;;;;1.17;1.08;;;;;;;11.06;100.00;99273.88;5033937;28;20048;-66
2022/12/29 02:48:21;;;;;;;2.03;1.48;;;;;;;11.02;100.00;99270.41;5034684;28;20414;-66
2022/12/29 02:51:03;;;;;;;1.80;1.52;;;;;;;11.20;100.00;99262.25;5046905;28;20029;-66
2022/12/29 02:56:18;;;;;;;1.70;1.30;;;;;;;11.13;100.00;99262.31;5021277;28;20044;-66
2022/12/29 02:58:45;;;;;;;1.20;1.00;;;;;;;11.20;100.00;99248.78;5042191;28;20033;-66
2022/12/29 03:02:16;;;;;;;1.88;1.35;;;;;;;11.28;100.00;99242.22;5046249;28;20079;-66
2022/12/29 03:04:45;;;;;;;1.42;1.05;;;;;;;11.14;100.00;99234.19;4989337;28;20486;-66
2022/12/29 03:07:23;;;;;;;3.60;1.33;;;;;;;11.20;100.00;99229.94;5035001;28;20040;-66
2022/12/29 03:10:02;;;;;;;1.80;1.50;;;;;;;10.97;100.00;99243.91;5029473;28;20037;-66
2022/12/29 03:18:32;;;;;;;1.95;1.70;;;;;;;11.13;100.00;99229.97;5046113;28;20033;-66
2022/12/29 03:22:26;;;;;;;1.40;1.27;;;;;;;11.27;100.00;99232.56;5018974;28;20395;-66
2022/12/29 03:24:12;;;;;;;1.73;1.20;;;;;;;10.97;100.00;99224.28;5028224;28;20586;-66
2022/12/29 03:26:39;;;;;;;2.45;1.38;;;;;;;10.88;100.00;99228.16;5030467;28;20124;-66
2022/12/29 03:29:07;;;;;;;3.15;1.33;;;;;;;10.95;100.00;99213.13;5037394;28;20505;-66
2022/12/29 03:31:35;;;;;;;2.35;1.50;;;;;;;11.13;100.00;99211.88;5034077;28;20053;-66
2022/12/29 03:34:01;;;;;;;1.85;1.30;;;;;;;11.13;100.00;99203.03;5027568;28;20041;-66
2022/12/29 03:36:33;;;;;;;1.75;1.35;;;;;;;11.29;100.00;99197.91;5029444;28;20032;-66
2022/12/29 03:39:11;;;;;;;2.70;1.20;;;;;;;11.42;100.00;99196.31;5046405;28;20030;-66
2022/12/29 03:41:40;;;;;;;1.50;1.40;;;;;;;11.37;100.00;99199.41;5044899;28;20121;-66
2022/12/29 03:44:08;;;;;;;2.95;1.40;;;;;;;11.28;100.00;99191.00;5023888;28;20040;-66
2022/12/29 03:46:34;;;;;;;1.48;1.17;;;;;;;11.28;100.00;99199.09;5042704;28;20049;-66
2022/12/29 03:48:59;;;;;;;3.85;1.63;;;;;;;11.19;100.00;99188.00;5040606;28;20065;-66
2022/12/29 03:51:25;;;;;;;1.35;1.20;;;;;;;11.19;100.00;99199.50;5044817;28;20212;-66
2022/12/29 03:53:51;;;;;;;2.50;1.27;;;;;;;11.16;100.00;99196.84;5032611;28;20121;-66
2022/12/29 03:56:17;;;;;;;2.83;1.70;;;;;;;11.13;100.00;99193.00;5034541;28;20107;-66
2022/12/29 03:58:43;;;;;;;2.20;1.40;;;;;;;11.09;100.00;99191.50;5038464;28;20045;-66
2022/12/29 04:01:13;;;;;;;1.30;1.17;;;;;;;11.16;100.00;99178.75;5032664;28;20494;-66
2022/12/29 04:03:39;;;;;;;1.90;1.17;;;;;;;10.97;100.00;99189.25;5027163;28;20112;-66
2022/12/29 04:06:04;;;;;;;1.42;1.30;;;;;;;11.19;100.00;99188.75;5029750;28;20075;-66
2022/12/29 04:08:38;;;;;;;1.90;1.27;;;;;;;11.12;100.00;99182.63;5023992;28;20112;-66
2022/12/29 04:11:05;;;;;;;1.13;1.00;;;;;;;11.24;100.00;99179.47;5040678;28;20025;-66
2022/12/29 04:13:30;;;;;;;0.80;0.80;;;;;;;11.14;100.00;99180.31;5028904;28;20032;-66
2022/12/29 04:15:56;;;;;;;3.75;1.20;;;;;;;11.09;100.00;99172.66;5028497;28;20625;-66
2022/12/29 04:18:21;;;;;;;1.80;1.30;;;;;;;10.97;100.00;99194.66;5029382;28;20072;-66
2022/12/29 04:21:05;;;;;;;0.75;0.75;;;;;;;11.13;100.00;99186.88;5044051;28;20448;-66
2022/12/29 04:23:35;;;;;;;1.50;1.20;;;;;;;11.26;100.00;99172.53;5028339;28;20413;-66
2022/12/29 04:26:03;;;;;;;1.10;1.00;;;;;;;11.28;100.00;99175.59;5028746;28;20040;-67
2022/12/29 04:28:29;;;;;;;0.95;0.82;;;;;;;11.31;100.00;99180.19;5027810;28;20903;-67
2022/12/29 04:31:13;;;;;;;0.55;0.55;;;;;;;11.41;100.00;99170.50;5026748;28;20133;-67
2022/12/29 04:33:41;;;;;;;2.13;1.10;;;;;;;11.20;100.00;99176.03;5026694;28;20037;-68
2022/12/29 04:36:06;;;;;;;1.00;0.90;;;;;;;11.32;100.00;99172.88;5028589;28;20037;-67
2022/12/29 04:38:33;;;;;;;1.23;0.85;;;;;;;11.39;100.00;99167.44;5045419;28;20029;-67
2022/12/29 04:41:01;;;;;;;1.65;1.20;;;;;;;11.21;100.00;99156.00;5049310;28;20029;-67
2022/12/29 04:43:27;;;;;;;1.67;1.10;;;;;;;11.18;100.00;99154.13;5040376;28;20536;-67
2022/12/29 04:46:12;;;;;;;1.33;0.77;;;;;;;11.25;100.00;99122.50;5041984;28;20461;-68
2022/12/29 04:49:08;;;;;;;0.95;0.80;;;;;;;11.45;100.00;99136.19;5039185;28;20033;-67
2022/12/29 04:51:52;;;;;;;1.67;0.93;;;;;;;11.27;100.00;99132.88;5035698;28;20453;-65
2022/12/29 04:54:18;;;;;;;1.38;0.90;;;;;;;11.38;100.00;99142.41;5034605;28;20549;-66
2022/12/29 04:56:48;;;;;;;4.63;0.93;;;;;;;11.40;100.00;99131.25;5032258;28;20032;-67
2022/12/29 04:59:16;;;;;;;0.93;0.70;;;;;;;11.33;100.00;99128.59;5050518;28;20052;-68
2022/12/29 05:01:44;;;;;;;1.38;0.80;;;;;;;11.49;100.00;99128.84;5015924;28;20032;-65
2022/12/29 05:04:09;;;;;;;5.05;0.90;;;;;;;11.25;100.00;99129.81;5031437;28;20025;-67
2022/12/29 05:06:35;;;;;;;0.68;0.68;;;;;;;11.40;100.00;99131.25;5024073;28;20053;-67
2022/12/29 05:09:01;;;;;;;1.20;0.80;;;;;;;11.47;100.00;99131.94;5011624;28;20033;-66
2022/12/29 05:11:26;;;;;;;0.70;0.70;;;;;;;11.42;100.00;99128.91;5013816;28;20099;-67
2022/12/29 05:13:53;;;;;;;0.80;0.80;;;;;;;11.44;100.00;99130.03;5032062;28;20064;-67
2022/12/29 05:16:18;;;;;;;0.55;0.52;;;;;;;11.55;100.00;99132.66;5030599;28;20034;-68
2022/12/29 05:18:44;;;;;;;1.90;0.82;;;;;;;11.40;100.00;99117.78;5031896;28;20041;-66
2022/12/29 05:21:09;;;;;;;1.65;0.80;;;;;;;11.40;100.00;99132.00;5030835;28;20037;-68
2022/12/29 05:23:36;;;;;;;1.10;0.82;;;;;;;11.58;100.00;99140.72;5031589;28;20022;-67
2022/12/29 05:26:05;;;;;;;1.08;0.77;;;;;;;11.56;100.00;99118.00;5031008;28;20041;-67
2022/12/29 05:28:50;;;;;;;0.70;0.60;;;;;;;11.66;100.00;99131.44;5027362;28;20404;-67
2022/12/29 05:31:19;;;;;;;0.82;0.63;;;;;;;11.52;100.00;99131.50;5030504;28;20029;-65
2022/12/29 05:33:44;;;;;;;1.15;0.98;;;;;;;11.49;100.00;99145.03;5032203;28;20034;-67
2022/12/29 05:36:12;;;;;;;0.60;0.60;;;;;;;11.61;100.00;99122.97;5029126;28;20033;-67
2022/12/29 05:38:41;;;;;;;2.08;0.63;;;;;;;11.62;100.00;99132.59;5029465;28;20078;-67
2022/12/29 05:41:07;;;;;;;1.23;0.70;;;;;;;11.54;100.00;99131.88;5031030;28;20483;-68
2022/12/29 05:44:01;;;;;;;3.15;1.20;;;;;;;11.47;100.00;99129.25;5031128;28;20030;-67
2022/12/29 05:46:48;;;;;;;0.60;0.60;;;;;;;11.51;100.00;99132.69;5040075;28;20040;-68
2022/12/29 05:49:31;;;;;;;0.88;0.80;;;;;;;11.50;100.00;99114.97;5032128;28;20036;-67
2022/12/29 05:52:07;;;;;;;0.82;0.65;;;;;;;11.43;100.00;99133.13;5021843;28;20032;-68
2022/12/29 05:54:33;;;;;;;0.57;0.57;;;;;;;11.50;100.00;99135.75;5033249;28;20033;-68
2022/12/29 05:57:00;;;;;;;2.00;0.80;;;;;;;11.57;100.00;99144.59;5031464;28;20035;-68
2022/12/29 05:59:26;;;;;;;1.23;1.00;;;;;;;11.53;100.00;99141.16;5031059;28;20076;-67
2022/12/29 06:01:53;;;;;;;1.60;0.90;;;;;;;11.49;100.00;99135.03;5009611;28;20037;-66
2022/12/29 06:04:18;;;;;;;3.72;0.73;;;;;;;11.67;100.00;99127.56;5030078;28;20033;-68
2022/12/29 06:06:44;;;;;;;1.80;0.80;;;;;;;11.65;100.00;99135.28;5031707;28;20108;-68
2022/12/29 06:09:18;;;;;;;0.80;0.75;;;;;;;11.72;100.00;99142.53;5027232;28;20018;-69
2022/12/29 06:11:43;;;;;;;1.17;0.70;;;;;;;11.90;100.00;99142.38;5028693;28;20041;-68
2022/12/29 06:14:09;;;;;;;0.60;0.60;;;;;;;11.85;100.00;99140.09;5030697;28;20029;-68
2022/12/29 06:16:34;;;;;;;1.02;0.80;;;;;;;11.78;100.00;99132.88;5030272;28;20082;-68
2022/12/29 06:19:04;;;;;;;0.90;0.60;;;;;;;11.84;100.00;99139.34;5025858;28;20026;-68
2022/12/29 06:21:30;;;;;;;0.75;0.50;;;;;;;11.97;100.00;99145.78;5027248;28;20659;-68
2022/12/29 06:23:59;;;;;;;2.75;0.85;;;;;;;11.79;100.00;99145.16;5029774;28;20048;-69
2022/12/29 06:26:24;;;;;;;0.85;0.60;;;;;;;11.89;100.00;99149.69;5028584;28;20034;-69
2022/12/29 06:28:50;;;;;;;1.63;0.77;;;;;;;11.77;100.00;99145.56;5024274;28;20026;-69
2022/12/29 06:31:15;;;;;;;0.70;0.60;;;;;;;11.84;100.00;99135.88;5035509;28;20030;-67
2022/12/29 06:33:41;;;;;;;0.80;0.60;;;;;;;11.97;100.00;99153.09;5029169;28;20120;-67
2022/12/29 06:36:07;;;;;;;1.38;0.90;;;;;;;12.10;100.00;99140.66;5031546;28;20033;-67
2022/12/29 06:38:32;;;;;;;0.80;0.70;;;;;;;11.90;100.00;99147.78;5029712;28;20120;-67
2022/12/29 06:40:58;;;;;;;0.95;0.65;;;;;;;11.99;100.00;99150.75;5046237;28;20058;-65
2022/12/29 06:43:30;;;;;;;;;;;;;;;11.91;100.00;99147.38;5048206;28;20040;-67
2022/12/29 06:46:07;;;;;;;0.55;0.52;;;;;;;11.86;100.00;99139.72;5039634;28;19917;-67
2022/12/29 06:48:32;;;;;;;0.55;0.55;;;;;;;12.01;100.00;99124.16;5036115;28;20094;-67
2022/12/29 06:50:58;;;;;;;3.38;0.52;;;;;;;12.01;100.00;99118.75;5034330;28;20024;-67
2022/12/29 06:53:23;;;;;;;0.45;0.40;;;;;;;12.08;100.00;99127.53;5030278;28;20033;-67
2022/12/29 06:55:48;;;;;;;1.75;0.55;;;;;;;11.98;100.00;99139.19;5030976;28;20029;-67
2022/12/29 06:58:14;;;;;;;0.70;0.70;;;;;;;11.92;100.00;99134.66;5029962;28;20041;-67
2022/12/29 07:00:40;;;;;;;0.47;0.47;;;;;;;11.99;100.00;99123.78;5029122;28;20033;-64
2022/12/29 07:03:05;;;;;;;0.75;0.60;;;;;;;12.11;100.00;99131.38;5028577;28;20030;-64
2022/12/29 07:05:32;;;;;;;0.60;0.60;;;;;;;12.01;100.00;99127.63;5029515;28;20039;-67
2022/12/29 07:07:58;;;;;;;0.55;0.50;;;;;;;12.00;100.00;99130.72;5013594;28;20099;-66
2022/12/29 07:10:23;;;;;;;0.75;0.65;;;;;;;11.90;100.00;99134.28;5029427;28;20022;-65
2022/12/29 07:12:49;;;;;;;1.15;1.05;;;;;;;11.99;100.00;99135.34;5029636;28;20056;-66
2022/12/29 07:15:14;;;;;;;0.93;0.60;;;;;;;12.05;100.00;99124.88;5030538;28;20557;-66
2022/12/29 07:17:40;;;;;;;0.80;0.60;;;;;;;12.11;100.00;99126.75;5030034;28;20056;-66
2022/12/29 07:20:06;;;;;;;0.47;0.45;;;;;;;12.11;100.00;99121.34;5030570;28;20029;-66
2022/12/29 07:22:32;;;;;;;0.80;0.75;;;;;;;12.07;100.00;99120.63;5018223;28;20038;-65
2022/12/29 07:24:57;;;;;;;1.50;0.85;;;;;;;11.99;100.00;99119.16;5034952;28;20029;-68
2022/12/29 07:27:23;;;;;;;0.70;0.63;;;;;;;11.95;100.00;99117.66;5030854;28;20036;-67
2022/12/29 07:29:48;;;;;;;0.70;0.65;;;;;;;11.81;100.00;99125.91;5030654;28;20041;-66
2022/12/29 07:32:14;;;;;;;3.38;0.77;;;;;;;11.92;100.00;99121.94;5031517;28;20053;-66
2022/12/29 07:34:39;;;;;;;0.85;0.57;;;;;;;11.99;100.00;99119.16;5031454;28;20037;-68
2022/12/29 07:37:05;;;;;;;0.70;0.50;;;;;;;12.00;100.00;99125.31;5019568;28;20058;-66
2022/12/29 07:39:31;;;;;;;1.02;0.93;;;;;;;12.08;100.00;99132.19;5029926;28;20461;-67
2022/12/29 07:41:56;;;;;;;1.33;0.98;;;;;;;11.90;100.00;99135.06;5030780;28;20029;-67
2022/12/29 07:44:24;;;;;;;1.20;0.80;;;;;;;11.91;100.00;99152.75;5027659;28;20025;-68
2022/12/29 07:46:52;;;;;;;3.15;1.10;;;;;;;11.85;100.00;99159.75;5023780;28;20542;-68
2022/12/29 07:49:17;;;;;;;0.77;0.77;;;;;;;11.70;100.00;99147.56;5029841;28;20096;-68
2022/12/29 07:51:43;;;;;;;1.15;0.70;;;;;;;11.72;100.00;99134.44;5025842;28;20114;-68
2022/12/29 07:54:09;;;;;;;0.70;0.70;;;;;;;11.81;100.00;99136.69;5032821;28;20029;-70
2022/12/29 07:56:34;;;;;;;1.58;0.60;;;;;;;11.96;100.00;99133.47;5034012;28;20029;-69
2022/12/29 07:58:59;;;;;;;0.77;0.73;;;;;;;12.13;100.00;99135.19;5035451;28;20042;-68
2022/12/29 08:01:25;;;;;;;0.80;0.80;;;;;;;12.01;100.00;99151.13;5032022;28;20379;-68
2022/12/29 08:03:50;;;;;;;1.98;1.15;;;;;;;12.01;100.00;99173.47;5033863;28;20063;-67
2022/12/29 08:06:16;;;;;;;1.73;0.85;;;;;;;12.07;100.00;99160.31;5030288;28;20029;-68
2022/12/29 08:08:41;;;;;;;0.98;0.80;;;;;;;11.91;100.00;99139.28;5033825;28;20033;-68
2022/12/29 08:11:07;;;;;;;0.80;0.80;;;;;;;12.02;100.00;99156.13;5028638;28;20159;-66
2022/12/29 08:13:32;;;;;;;1.05;0.50;;;;;;;11.87;100.00;99170.13;5020915;28;20179;-67
2022/12/29 08:15:58;;;;;;;0.95;0.70;;;;;;;11.90;100.00;99172.81;5030345;28;20501;-68
2022/12/29 08:18:24;;;;;;;0.73;0.70;;;;;;;11.95;100.00;99171.59;5036452;28;20378;-68
2022/12/29 08:20:50;;;;;;;0.60;0.60;;;;;;;11.81;100.00;99169.06;5035147;28;20045;-66
2022/12/29 08:23:15;;;;;;;0.55;0.50;;;;;;;11.95;100.00;99172.38;5031609;28;20038;-67
2022/12/29 08:25:41;;;;;;;0.75;0.75;;;;;;;12.03;100.00;99165.75;5031473;28;20072;-67
2022/12/29 08:28:06;;;;;;;2.38;0.70;;;;;;;11.89;100.00;99175.91;5030244;28;20029;-66
2022/12/29 08:30:32;;;;;;;0.60;0.60;;;;;;;12.00;100.00;99176.59;5033583;28;20679;-66
2022/12/29 08:32:57;;;;;;;0.77;0.70;;;;;;;11.81;100.00;99186.00;5029513;28;20030;-69
2022/12/29 08:35:22;;;;;;;0.80;0.63;;;;;;;11.72;100.00;99183.78;5032369;28;20048;-68
2022/12/29 08:37:48;;;;;;;4.22;0.73;;;;;;;11.75;100.00;99185.66;5031206;28;20593;-65
2022/12/29 08:40:14;;;;;;;0.70;0.70;;;;;;;11.82;100.00;99198.31;5026282;28;20026;-69
2022/12/29 08:42:39;;;;;;;1.08;0.80;;;;;;;11.92;100.00;99194.78;5027162;28;20104;-66
2022/12/29 08:45:06;;;;;;;0.68;0.68;;;;;;;11.86;100.00;99190.97;5029840;28;20159;-66
2022/12/29 08:47:32;;;;;;;0.55;0.55;;;;;;;12.00;100.00;99207.00;5030570;28;20034;-66
2022/12/29 08:49:57;;;;;;;0.68;0.57;;;;;;;11.95;100.00;99207.44;5029360;28;20029;-67
2022/12/29 08:52:22;;;;;;;0.85;0.60;;;;;;;11.95;100.00;99193.19;5042579;28;20037;-65
2022/12/29 08:54:48;;;;;;;0.80;0.60;;;;;;;12.13;100.00;99202.66;5041925;28;20044;-65
2022/12/29 08:57:14;;;;;;;0.50;0.50;;;;;;;12.09;100.00;99201.16;5042933;28;20025;-66
2022/12/29 08:59:57;;;;;;;1.13;0.65;;;;;;;11.91;100.00;99201.31;5024172;28;20036;-66
2022/12/29 09:02:23;;;;;;;0.50;0.50;;;;;;;11.97;100.00;99205.13;5032528;28;20034;-66
2022/12/29 09:04:48;;;;;;;0.57;0.50;;;;;;;12.03;100.00;99197.34;5036915;28;20108;-66
2022/12/29 09:07:14;;;;;;;0.60;0.60;;;;;;;12.01;100.00;99205.09;5039236;28;20052;-66
2022/12/29 09:09:39;;;;;;;0.88;0.68;;;;;;;11.92;100.00;99212.88;5040036;28;20032;-67
2022/12/29 09:12:05;;;;;;;2.55;0.80;;;;;;;11.90;100.00;99215.22;5019189;28;20474;-66
2022/12/29 09:14:30;;;;;;;3.92;0.60;;;;;;;12.01;100.00;99211.25;5036614;28;20050;-66
2022/12/29 09:19:40;;;;;;;0.95;0.50;;;;;;;12.17;100.00;99216.13;5040941;28;20037;-66
2022/12/29 09:22:06;;;;;;;1.85;0.50;;;;;;;12.03;100.00;99217.03;5038396;28;20021;-67
2022/12/29 09:24:31;;;;;;;0.95;0.63;;;;;;;12.10;100.00;99214.25;5037013;28;20025;-66
2022/12/29 09:26:56;;;;;;;0.98;0.57;;;;;;;12.07;100.00;99222.38;5043772;28;20059;-69
2022/12/29 09:29:22;;;;;;;1.85;0.38;;;;;;;12.17;100.00;99222.28;5047646;28;20121;-67
2022/12/29 09:31:47;;;;;;;0.38;0.38;;;;;;;12.24;100.00;99240.34;5030240;28;20095;-65
2022/12/29 09:34:13;;;;;;;1.85;0.65;;;;;;;12.14;100.00;99249.28;5031551;28;20125;-67
2022/12/29 09:36:38;;;;;;;1.50;0.40;;;;;;;12.14;100.00;99243.88;5038849;28;20025;-66
2022/12/29 09:39:04;;;;;;;0.32;0.32;;;;;;;12.20;100.00;99245.00;5041491;28;20044;-66
2022/12/29 09:41:38;;;;;;;0.35;0.35;;;;;;;12.16;100.00;99239.63;5038949;28;20084;-69
2022/12/29 09:44:13;;;;;;;3.85;0.63;;;;;;;12.02;100.00;99247.84;5053038;28;20037;-68
2022/12/29 09:46:43;;;;;;;0.45;0.40;;;;;;;11.92;100.00;99254.13;5047396;28;20468;-66
2022/12/29 09:49:43;;;;;;;1.40;0.67;;;;;;;12.03;100.00;99244.00;5029659;28;20068;-66
2022/12/29 09:52:21;;;;;;;1.30;0.60;;;;;;;12.09;99.87;99253.19;5033267;28;20029;-66
2022/12/29 09:55:19;;;;;;;0.30;0.30;;;;;;;12.12;100.00;99248.91;5041453;28;20046;-65
2022/12/29 09:57:58;;;;;;;3.22;0.38;;;;;;;12.17;98.86;99226.91;5017817;28;20448;-67
2022/12/29 10:00:38;;;;;;;4.22;0.80;;;;;;;12.21;98.79;99236.53;5036910;28;20033;-68
2022/12/29 10:03:16;;;;;;;1.83;0.40;;;;;;;12.46;98.49;99247.06;5034227;28;20073;-67
2022/12/29 10:06:09;;;;;;;0.55;0.55;;;;;;;12.17;97.64;99256.59;5025684;28;20748;-67
2022/12/29 10:08:43;;;;;;;2.75;1.02;;;;;;;12.31;96.63;99251.81;5034892;28;20393;-67
2022/12/29 10:11:24;;;;;;;4.47;0.90;;;;;;;12.38;95.80;99257.19;5038691;28;20075;-68
2022/12/29 10:14:14;;;;;;;1.27;0.52;;;;;;;12.51;95.94;99258.19;5043013;28;20053;-70
2022/12/29 10:16:58;;;;;;;1.17;0.50;;;;;;;12.58;94.93;99258.09;5056805;28;20483;-68
2022/12/29 10:20:18;;;;;;;0.40;0.35;;;;;;;12.61;93.86;99248.44;5039799;28;20038;-67
2022/12/29 10:23:01;;;;;;;2.30;0.80;;;;;;;12.47;93.49;99235.84;4952542;28;20043;-67
2022/12/29 10:25:34;;;;;;;1.33;0.80;;;;;;;12.61;93.42;99249.22;5037338;28;20043;-67
2022/12/29 10:28:21;;;;;;;0.85;0.43;;;;;;;12.41;94.09;99250.97;5035123;28;20385;-67
2022/12/29 10:30:49;;;;;;;1.23;0.50;;;;;;;12.12;94.74;99244.28;4993457;28;20050;-72
2022/12/29 10:33:23;;;;;;;1.10;0.70;;;;;;;12.30;95.08;99242.22;4976651;28;20042;-68
2022/12/29 10:35:50;;;;;;;2.13;0.32;;;;;;;12.41;93.53;99255.59;4996546;28;20049;-68
2022/12/29 10:38:49;;;;;;;0.75;0.40;;;;;;;12.61;93.52;99254.63;4965079;28;20039;-67
2022/12/29 10:41:21;;;;;;;0.47;0.32;;;;;;;12.63;93.40;99254.97;4956422;28;20562;-67
2022/12/29 10:43:48;;;;;;;0.50;0.50;;;;;;;12.68;92.66;99248.34;5003146;28;20464;-67
2022/12/29 10:46:18;;;;;;;0.57;0.52;;;;;;;12.82;92.69;99259.00;4987441;28;20092;-69
2022/12/29 10:48:46;;;;;;;1.33;0.40;;;;;;;12.94;91.46;99255.78;4966285;28;20562;-68
2022/12/29 10:51:21;;;;;;;1.00;0.45;;;;;;;12.97;91.12;99252.25;4969626;28;20045;-67
2022/12/29 10:53:50;;;;;;;2.15;0.70;;;;;;;13.01;89.89;99244.09;4979183;28;20046;-67
2022/12/29 10:56:40;;;;;;;2.55;0.50;;;;;;;12.86;89.73;99237.34;4967108;28;20086;-68
2022/12/29 10:59:22;;;;;;;2.80;0.50;;;;;;;12.68;90.63;99245.66;4991161;28;20419;-69
2022/12/29 11:02:29;;;;;;;0.38;0.30;;;;;;;12.80;91.14;99252.47;4989567;28;20651;-67
2022/12/29 11:04:55;;;;;;;1.75;0.30;;;;;;;12.73;89.92;99252.56;4963673;28;20132;-68
2022/12/29 11:07:21;;;;;;;1.58;0.40;;;;;;;12.73;90.61;99252.56;5004814;28;20065;-69
2022/12/29 11:09:47;;;;;;;0.55;0.30;;;;;;;12.65;90.53;99251.88;5031774;28;20082;-67
2022/12/29 11:12:30;;;;;;;1.48;0.32;;;;;;;12.61;90.38;99249.22;5025844;28;20494;-68
2022/12/29 11:15:08;;;;;;;4.45;0.60;;;;;;;12.68;90.52;99251.06;5031026;28;20041;-69
2022/12/29 11:17:50;;;;;;;5.60;0.52;;;;;;;12.58;89.75;99250.00;5040453;28;20565;-67
2022/12/29 11:20:37;;;;;;;0.68;0.32;;;;;;;12.63;88.91;99246.88;5026006;28;20033;-68
2022/12/29 11:23:05;;;;;;;2.25;0.30;;;;;;;12.62;88.79;99250.72;5026698;28;20037;-66
2022/12/29 11:25:31;;;;;;;2.45;0.38;;;;;;;12.73;88.70;99256.03;5023484;28;20021;-68
2022/12/29 11:28:34;;;;;;;0.25;0.20;;;;;;;12.76;87.93;99252.50;5017326;28;20095;-68
2022/12/29 11:31:02;;;;;;;0.68;0.30;;;;;;;12.80;86.37;99252.47;4989756;28;20158;-69
2022/12/29 11:33:45;;;;;;;1.30;0.40;;;;;;;12.65;86.88;99247.25;4977627;28;21605;-69
2022/12/29 11:36:16;;;;;;;3.00;0.80;;;;;;;12.50;86.66;99259.34;4958966;28;20057;-69
2022/12/29 11:39:02;;;;;;;0.52;0.30;;;;;;;12.54;86.74;99251.97;4972213;28;20495;-69
2022/12/29 11:41:30;;;;;;;1.63;0.28;;;;;;;12.58;86.17;99246.56;4978927;28;20049;-68
2022/12/29 11:44:01;;;;;;;1.65;0.38;;;;;;;12.68;86.00;99243.72;4975407;28;20071;-67
2022/12/29 11:46:31;;;;;;;0.55;0.30;;;;;;;12.76;86.04;99249.81;4973717;28;20033;-67
2022/12/29 11:48:59;;;;;;;1.10;0.30;;;;;;;12.78;85.01;99241.28;4998224;28;20050;-71
2022/12/29 11:51:41;;;;;;;0.30;0.20;;;;;;;12.48;85.44;99242.81;4991974;28;20395;-67
2022/12/29 11:54:11;;;;;;;4.75;0.40;;;;;;;12.60;85.79;99241.53;4991408;28;20313;-67
2022/12/29 11:56:42;;;;;;;2.13;0.40;;;;;;;12.57;86.20;99251.19;4987054;28;20503;-68
2022/12/29 11:59:38;;;;;;;0.30;0.30;;;;;;;12.71;85.62;99261.06;4986318;28;20081;-67
2022/12/29 12:02:19;;;;;;;2.08;1.05;;;;;;;12.75;85.11;99255.63;4988783;28;20149;-67
2022/12/29 12:04:45;;;;;;;0.20;0.20;;;;;;;12.77;86.06;99247.88;4981293;28;20121;-67
2022/12/29 12:07:15;;;;;;;0.73;0.47;;;;;;;12.65;85.89;99254.56;4971034;28;20104;-67
2022/12/29 12:09:45;;;;;;;2.87;0.40;;;;;;;12.66;86.23;99253.38;5027207;28;20040;-70
2022/12/29 12:12:31;;;;;;;2.40;0.37;;;;;;;12.49;88.83;99265.16;5036262;28;20300;-67
2022/12/29 12:15:01;;;;;;;0.60;0.32;;;;;;;12.42;89.99;99266.00;5025762;28;20427;-68
2022/12/29 12:17:51;;;;;;;1.05;0.60;;;;;;;12.38;90.85;99256.41;5030788;28;20025;-67
2022/12/29 12:20:21;;;;;;;0.60;0.20;;;;;;;12.46;90.62;99260.56;5028131;28;20052;-68
2022/12/29 12:22:58;;;;;;;0.37;0.30;;;;;;;12.38;91.20;99253.69;5028587;28;20040;-66
2022/12/29 12:25:34;;;;;;;0.55;0.50;;;;;;;12.30;91.96;99257.63;5043922;28;20033;-68